createdAt,value
2023-04-23T00:00:15.968Z,46.65
2023-04-23T00:00:38.732Z,46.72
2023-04-23T00:01:02.512Z,46.94
2023-04-23T00:01:28.032Z,46.84
2023-04-23T00:01:52.464Z,46.87
2023-04-23T00:02:16.695Z,47.32
2023-04-23T00:02:39.386Z,47.22
2023-04-23T00:03:09.858Z,46.78
2023-04-23T00:03:33.881Z,46.55
2023-04-23T00:03:58.283Z,46.67
2023-04-23T00:04:22.942Z,46.81
2023-04-23T00:04:51.743Z,46.62
2023-04-23T00:05:14.752Z,46.61
2023-04-23T00:05:37.723Z,46.57
2023-04-23T00:05:59.903Z,46.24
2023-04-23T00:06:23.436Z,46.47
2023-04-23T00:06:46.871Z,46.24
2023-04-23T00:07:09.016Z,46.06
2023-04-23T00:07:32.362Z,46.06
2023-04-23T00:07:54.439Z,45.78
2023-04-23T00:08:19.135Z,45.63
2023-04-23T00:08:42.021Z,45.70
2023-04-23T00:09:06.968Z,45.95
2023-04-23T00:09:32.448Z,46.64
2023-04-23T00:09:58.516Z,47.05
2023-04-23T00:10:20.706Z,47.15
2023-04-23T00:10:42.776Z,47.21
2023-04-23T00:11:06.383Z,47.12
2023-04-23T00:11:28.548Z,47.35
2023-04-23T00:11:50.746Z,47.18
2023-04-23T00:12:13.241Z,47.27
2023-04-23T00:12:36.667Z,47.22
2023-04-23T00:12:59.361Z,47.14
2023-04-23T00:13:21.514Z,47.04
2023-04-23T00:13:44.283Z,47.12
2023-04-23T00:14:07.350Z,47.17
2023-04-23T00:14:29.484Z,46.99
2023-04-23T00:14:51.654Z,46.91
2023-04-23T00:15:14.385Z,46.93
2023-04-23T00:15:38.021Z,46.98
2023-04-23T00:16:00.404Z,47.11
2023-04-23T00:16:22.759Z,46.99
2023-04-23T00:16:45.083Z,47.21
2023-04-23T00:17:07.786Z,47.30
2023-04-23T00:17:29.597Z,46.95
2023-04-23T00:17:51.517Z,46.71
2023-04-23T00:18:13.604Z,46.71
2023-04-23T00:18:36.211Z,46.64
2023-04-23T00:18:57.844Z,46.75
2023-04-23T00:19:20.857Z,46.92
2023-04-23T00:19:42.590Z,46.75
2023-04-23T00:20:06.436Z,46.62
2023-04-23T00:20:29.058Z,46.70
2023-04-23T00:20:50.975Z,47.03
2023-04-23T00:21:12.755Z,47.05
2023-04-23T00:21:34.385Z,46.73
2023-04-23T00:21:57.024Z,46.92
2023-04-23T00:22:20.184Z,46.52
2023-04-23T00:22:42.166Z,46.92
2023-04-23T00:23:03.849Z,46.86
2023-04-23T00:23:25.544Z,47.07
2023-04-23T00:23:48.481Z,47.06
2023-04-23T00:24:10.301Z,46.76
2023-04-23T00:24:36.160Z,46.63
2023-04-23T00:24:57.906Z,46.66
2023-04-23T00:25:20.691Z,46.49
2023-04-23T00:25:42.339Z,46.76
2023-04-23T00:26:04.090Z,46.58
2023-04-23T00:26:25.799Z,46.36
2023-04-23T00:26:48.384Z,46.12
2023-04-23T00:27:10.028Z,46.26
2023-04-23T00:27:31.685Z,46.30
2023-04-23T00:27:53.333Z,46.46
2023-04-23T00:28:14.975Z,46.81
2023-04-23T00:28:37.788Z,46.83
2023-04-23T00:28:59.388Z,46.87
2023-04-23T00:29:21.035Z,46.91
2023-04-23T00:29:43.566Z,46.75
2023-04-23T00:30:06.898Z,46.83
2023-04-23T00:30:29.853Z,46.76
2023-04-23T00:30:51.457Z,46.88
2023-04-23T00:31:13.061Z,46.77
2023-04-23T00:32:17.317Z,46.90
2023-04-23T00:32:39.057Z,46.70
2023-04-23T00:33:00.787Z,46.71
2023-04-23T00:33:23.136Z,46.84
2023-04-23T00:33:44.836Z,46.67
2023-04-23T00:34:07.733Z,46.68
2023-04-23T00:34:29.635Z,46.75
2023-04-23T00:34:51.745Z,46.76
2023-04-23T00:35:13.362Z,46.80
2023-04-23T00:35:35.234Z,46.86
2023-04-23T00:35:57.887Z,46.81
2023-04-23T00:36:19.550Z,46.96
2023-04-23T00:36:42.655Z,46.55
2023-04-23T00:37:06.821Z,46.57
2023-04-23T00:37:29.406Z,46.60
2023-04-23T00:37:51.105Z,46.63
2023-04-23T00:38:12.730Z,46.57
2023-04-23T00:38:34.328Z,46.76
2023-04-23T00:38:55.999Z,46.93
2023-04-23T00:39:17.794Z,46.98
2023-04-23T00:39:43.002Z,46.94
2023-04-23T00:40:05.823Z,46.91
2023-04-23T00:40:27.495Z,46.94
2023-04-23T00:40:49.289Z,46.63
2023-04-23T00:41:12.542Z,46.76
2023-04-23T00:41:34.390Z,46.68
2023-04-23T00:41:56.050Z,46.88
2023-04-23T00:42:17.714Z,46.79
2023-04-23T00:42:39.963Z,47.11
2023-04-23T00:43:03.271Z,47.04
2023-04-23T00:43:24.957Z,47.08
2023-04-23T00:43:47.459Z,47.18
2023-04-23T00:44:09.123Z,47.04
2023-04-23T00:44:31.765Z,47.06
2023-04-23T00:44:53.715Z,47.21
2023-04-23T00:45:16.086Z,47.34
2023-04-23T00:45:38.143Z,47.15
2023-04-23T00:46:01.114Z,47.28
2023-04-23T00:46:23.497Z,47.41
2023-04-23T00:46:47.024Z,47.16
2023-04-23T00:47:08.800Z,47.27
2023-04-23T00:47:31.250Z,47.25
2023-04-23T00:47:54.813Z,47.34
2023-04-23T00:48:16.752Z,47.31
2023-04-23T00:48:39.742Z,47.50
2023-04-23T00:49:01.958Z,47.41
2023-04-23T00:49:25.182Z,47.22
2023-04-23T00:49:48.521Z,47.25
2023-04-23T00:50:10.313Z,47.31
2023-04-23T00:50:32.221Z,47.54
2023-04-23T00:50:59.604Z,47.50
2023-04-23T00:51:22.555Z,47.25
2023-04-23T00:51:44.126Z,47.41
2023-04-23T00:52:05.970Z,47.30
2023-04-23T00:52:29.073Z,47.26
2023-04-23T00:52:52.802Z,47.14
2023-04-23T00:53:14.403Z,47.17
2023-04-23T00:53:36.136Z,47.09
2023-04-23T00:53:58.236Z,47.20
2023-04-23T00:54:22.175Z,47.24
2023-04-23T00:54:45.859Z,47.29
2023-04-23T00:55:08.940Z,47.27
2023-04-23T00:55:30.710Z,47.39
2023-04-23T00:55:53.035Z,47.22
2023-04-23T00:56:16.542Z,47.32
2023-04-23T00:56:38.567Z,47.29
2023-04-23T00:57:01.051Z,47.17
2023-04-23T00:57:23.037Z,47.20
2023-04-23T00:57:45.951Z,47.24
2023-04-23T00:58:07.736Z,47.08
2023-04-23T00:58:30.063Z,46.94
2023-04-23T00:58:52.481Z,47.06
2023-04-23T00:59:14.505Z,47.10
2023-04-23T00:59:37.786Z,47.11
2023-04-23T01:00:00.264Z,47.30
2023-04-23T01:00:22.524Z,47.15
2023-04-23T01:00:47.295Z,46.77
2023-04-23T01:01:10.525Z,46.68
2023-04-23T01:01:33.246Z,46.67
2023-04-23T01:01:56.220Z,46.58
2023-04-23T01:02:18.266Z,46.48
2023-04-23T01:02:42.482Z,46.20
2023-04-23T01:03:06.295Z,46.04
2023-04-23T01:03:29.830Z,46.33
2023-04-23T01:03:53.734Z,46.25
2023-04-23T01:04:17.650Z,46.00
2023-04-23T01:04:41.462Z,46.14
2023-04-23T01:05:06.614Z,45.87
2023-04-23T01:05:28.347Z,45.88
2023-04-23T01:05:50.671Z,45.84
2023-04-23T01:06:12.469Z,45.85
2023-04-23T01:06:35.193Z,46.23
2023-04-23T01:06:58.054Z,46.01
2023-04-23T01:07:19.847Z,46.46
2023-04-23T01:07:43.444Z,46.55
2023-04-23T01:08:06.458Z,46.65
2023-04-23T01:08:31.352Z,46.56
2023-04-23T01:08:53.046Z,46.40
2023-04-23T01:09:15.502Z,46.55
2023-04-23T01:09:37.685Z,46.53
2023-04-23T01:10:01.938Z,46.53
2023-04-23T01:10:24.782Z,46.54
2023-04-23T01:10:47.656Z,46.58
2023-04-23T01:11:09.754Z,46.36
2023-04-23T01:11:33.081Z,46.47
2023-04-23T01:11:55.435Z,46.71
2023-04-23T01:12:17.781Z,46.65
2023-04-23T01:12:39.700Z,46.80
2023-04-23T01:13:02.481Z,46.73
2023-04-23T01:13:26.869Z,46.80
2023-04-23T01:13:48.533Z,46.80
2023-04-23T01:14:11.059Z,47.11
2023-04-23T01:14:33.018Z,47.04
2023-04-23T01:14:55.937Z,47.11
2023-04-23T01:15:17.575Z,47.21
2023-04-23T01:15:39.413Z,47.18
2023-04-23T01:16:01.935Z,47.06
2023-04-23T01:16:24.578Z,47.03
2023-04-23T01:16:46.975Z,47.40
2023-04-23T01:17:08.896Z,47.43
2023-04-23T01:17:30.707Z,47.45
2023-04-23T01:17:53.684Z,47.59
2023-04-23T01:18:16.471Z,47.73
2023-04-23T01:18:38.119Z,47.72
2023-04-23T01:18:59.784Z,47.81
2023-04-23T01:19:21.477Z,47.66
2023-04-23T01:19:44.857Z,47.78
2023-04-23T01:20:08.428Z,47.72
2023-04-23T01:20:31.214Z,47.81
2023-04-23T01:20:53.565Z,47.93
2023-04-23T01:21:16.998Z,48.19
2023-04-23T01:21:41.465Z,47.78
2023-04-23T01:22:04.184Z,48.18
2023-04-23T01:22:27.223Z,48.21
2023-04-23T01:22:48.913Z,48.41
2023-04-23T01:23:11.016Z,48.36
2023-04-23T01:23:34.212Z,48.32
2023-04-23T01:23:56.056Z,48.18
2023-04-23T01:24:18.001Z,48.17
2023-04-23T01:24:42.690Z,48.24
2023-04-23T01:25:08.018Z,48.30
2023-04-23T01:25:29.956Z,48.32
2023-04-23T01:25:51.661Z,48.46
2023-04-23T01:26:14.880Z,48.61
2023-04-23T01:26:36.541Z,48.76
2023-04-23T01:26:59.725Z,48.74
2023-04-23T01:27:22.273Z,48.70
2023-04-23T01:27:44.233Z,48.62
2023-04-23T01:28:06.593Z,48.32
2023-04-23T01:28:29.090Z,48.41
2023-04-23T01:28:52.667Z,48.64
2023-04-23T01:29:14.905Z,48.44
2023-04-23T01:29:38.092Z,48.47
2023-04-23T01:29:59.893Z,48.48
2023-04-23T01:30:21.926Z,48.27
2023-04-23T01:30:45.184Z,48.28
2023-04-23T01:31:07.179Z,48.30
2023-04-23T01:31:29.663Z,48.38
2023-04-23T01:31:51.811Z,48.57
2023-04-23T01:32:13.962Z,48.55
2023-04-23T01:32:36.850Z,48.61
2023-04-23T01:32:59.337Z,48.64
2023-04-23T01:33:21.650Z,48.67
2023-04-23T01:33:44.246Z,48.27
2023-04-23T01:34:07.790Z,48.27
2023-04-23T01:34:30.469Z,48.15
2023-04-23T01:34:54.012Z,48.13
2023-04-23T01:35:15.759Z,48.24
2023-04-23T01:35:38.845Z,48.56
2023-04-23T01:36:01.008Z,48.51
2023-04-23T01:36:23.331Z,48.56
2023-04-23T01:36:47.814Z,48.45
2023-04-23T01:37:11.309Z,48.32
2023-04-23T01:37:35.655Z,48.42
2023-04-23T01:37:58.901Z,48.42
2023-04-23T01:38:22.621Z,48.60
2023-04-23T01:38:46.015Z,48.43
2023-04-23T01:39:09.005Z,48.17
2023-04-23T01:39:31.031Z,48.05
2023-04-23T01:39:52.780Z,47.98
2023-04-23T01:40:14.438Z,48.00
2023-04-23T01:40:37.186Z,47.96
2023-04-23T01:40:58.980Z,48.08
2023-04-23T01:41:21.038Z,48.04
2023-04-23T01:41:43.356Z,48.12
2023-04-23T01:42:07.122Z,48.24
2023-04-23T01:42:29.760Z,47.92
2023-04-23T01:42:51.401Z,48.01
2023-04-23T01:43:13.048Z,47.90
2023-04-23T01:43:36.032Z,47.90
2023-04-23T01:43:57.857Z,48.15
2023-04-23T01:44:20.461Z,48.09
2023-04-23T01:44:42.820Z,48.06
2023-04-23T01:45:07.864Z,48.07
2023-04-23T01:45:30.633Z,48.12
2023-04-23T01:45:53.738Z,48.24
2023-04-23T01:46:15.745Z,48.30
2023-04-23T01:46:37.868Z,48.20
2023-04-23T01:46:59.588Z,48.17
2023-04-23T01:47:21.939Z,48.52
2023-04-23T01:47:44.810Z,48.29
2023-04-23T01:48:06.735Z,48.25
2023-04-23T01:48:28.627Z,48.08
2023-04-23T01:48:50.528Z,48.06
2023-04-23T01:49:13.731Z,47.99
2023-04-23T01:49:35.429Z,47.97
2023-04-23T01:49:57.222Z,48.12
2023-04-23T01:50:18.876Z,48.05
2023-04-23T01:50:41.497Z,48.22
2023-04-23T01:51:05.100Z,48.08
2023-04-23T01:51:27.036Z,48.11
2023-04-23T01:51:49.569Z,48.12
2023-04-23T01:52:11.367Z,48.30
2023-04-23T01:52:35.396Z,48.49
2023-04-23T01:52:57.270Z,48.10
2023-04-23T01:53:18.967Z,47.87
2023-04-23T01:53:40.712Z,47.78
2023-04-23T01:54:03.772Z,47.84
2023-04-23T01:54:25.507Z,48.04
2023-04-23T01:54:48.191Z,48.12
2023-04-23T01:55:09.779Z,48.25
2023-04-23T01:55:33.144Z,48.00
2023-04-23T01:55:56.081Z,47.85
2023-04-23T01:56:20.479Z,48.26
2023-04-23T01:56:42.346Z,48.02
2023-04-23T01:57:05.227Z,48.10
2023-04-23T01:57:27.628Z,48.07
2023-04-23T01:57:51.053Z,48.21
2023-04-23T01:58:12.798Z,47.96
2023-04-23T01:58:35.409Z,48.19
2023-04-23T01:58:57.122Z,48.11
2023-04-23T01:59:19.022Z,48.24
2023-04-23T01:59:41.434Z,48.30
2023-04-23T02:00:08.206Z,47.99
2023-04-23T02:00:39.928Z,47.51
2023-04-23T02:01:01.654Z,47.80
2023-04-23T02:01:23.305Z,47.80
2023-04-23T02:01:46.707Z,48.32
2023-04-23T02:02:13.688Z,48.11
2023-04-23T02:02:35.845Z,48.35
2023-04-23T02:02:57.860Z,48.40
2023-04-23T02:03:19.775Z,48.25
2023-04-23T02:03:41.622Z,48.22
2023-04-23T02:04:03.500Z,48.01
2023-04-23T02:04:27.347Z,48.27
2023-04-23T02:04:50.498Z,48.15
2023-04-23T02:05:13.520Z,48.03
2023-04-23T02:05:36.565Z,48.05
2023-04-23T02:05:59.548Z,48.41
2023-04-23T02:06:22.135Z,48.53
2023-04-23T02:06:47.180Z,48.41
2023-04-23T02:07:09.021Z,48.28
2023-04-23T02:07:31.186Z,48.23
2023-04-23T02:07:54.333Z,48.34
2023-04-23T02:08:17.184Z,47.86
2023-04-23T02:08:39.312Z,47.98
2023-04-23T02:09:00.970Z,47.77
2023-04-23T02:09:22.761Z,48.07
2023-04-23T02:09:45.902Z,47.95
2023-04-23T02:10:09.097Z,48.15
2023-04-23T02:10:31.925Z,48.23
2023-04-23T02:10:53.607Z,48.25
2023-04-23T02:11:15.307Z,48.40
2023-04-23T02:11:37.358Z,48.33
2023-04-23T02:12:00.051Z,48.36
2023-04-23T02:12:22.010Z,48.33
2023-04-23T02:12:44.432Z,48.29
2023-04-23T02:13:06.039Z,48.12
2023-04-23T02:13:28.871Z,48.03
2023-04-23T02:13:50.549Z,47.87
2023-04-23T02:14:12.821Z,47.81
2023-04-23T02:14:35.190Z,47.88
2023-04-23T02:14:58.483Z,47.95
2023-04-23T02:15:20.159Z,47.87
2023-04-23T02:15:43.154Z,48.02
2023-04-23T02:16:05.735Z,48.11
2023-04-23T02:16:28.582Z,48.22
2023-04-23T02:16:51.511Z,48.30
2023-04-23T02:17:13.196Z,48.60
2023-04-23T02:17:35.418Z,48.88
2023-04-23T02:17:57.135Z,48.86
2023-04-23T02:18:22.148Z,48.63
2023-04-23T02:18:44.780Z,48.74
2023-04-23T02:19:06.478Z,48.75
2023-04-23T02:19:28.105Z,48.57
2023-04-23T02:19:51.188Z,48.63
2023-04-23T02:20:12.823Z,48.59
2023-04-23T02:20:38.707Z,48.62
2023-04-23T02:21:00.361Z,48.76
2023-04-23T02:21:24.362Z,48.80
2023-04-23T02:21:47.642Z,48.90
2023-04-23T02:22:09.378Z,49.15
2023-04-23T02:22:31.558Z,48.71
2023-04-23T02:22:54.580Z,48.80
2023-04-23T02:23:16.237Z,48.64
2023-04-23T02:23:39.099Z,48.69
2023-04-23T02:24:00.751Z,48.73
2023-04-23T02:24:22.473Z,48.92
2023-04-23T02:24:44.486Z,49.21
2023-04-23T02:25:07.370Z,49.24
2023-04-23T02:25:32.278Z,49.52
2023-04-23T02:25:53.917Z,49.50
2023-04-23T02:26:15.799Z,49.40
2023-04-23T02:26:37.432Z,49.41
2023-04-23T02:27:00.407Z,49.39
2023-04-23T02:27:22.317Z,49.41
2023-04-23T02:27:44.432Z,49.31
2023-04-23T02:28:07.664Z,49.16
2023-04-23T02:28:31.382Z,49.04
2023-04-23T02:28:53.317Z,49.03
2023-04-23T02:29:15.027Z,49.12
2023-04-23T02:29:37.079Z,49.20
2023-04-23T02:29:59.091Z,49.20
2023-04-23T02:30:22.768Z,49.24
2023-04-23T02:30:46.591Z,49.28
2023-04-23T02:31:08.377Z,49.26
2023-04-23T02:31:33.315Z,49.46
2023-04-23T02:31:55.189Z,49.46
2023-04-23T02:32:18.124Z,49.50
2023-04-23T02:32:40.272Z,49.47
2023-04-23T02:33:02.036Z,49.59
2023-04-23T02:33:24.631Z,49.61
2023-04-23T02:33:46.966Z,49.73
2023-04-23T02:34:09.703Z,49.66
2023-04-23T02:34:31.453Z,49.41
2023-04-23T02:34:53.597Z,49.49
2023-04-23T02:35:15.280Z,49.37
2023-04-23T02:35:36.980Z,49.33
2023-04-23T02:35:58.722Z,49.28
2023-04-23T02:36:21.469Z,49.45
2023-04-23T02:36:43.815Z,49.50
2023-04-23T02:37:05.472Z,49.41
2023-04-23T02:37:27.280Z,49.54
2023-04-23T02:37:49.943Z,49.50
2023-04-23T02:38:12.992Z,49.46
2023-04-23T02:38:34.602Z,49.44
2023-04-23T02:38:56.227Z,49.51
2023-04-23T02:39:18.822Z,49.65
2023-04-23T02:39:40.471Z,49.50
2023-04-23T02:40:02.217Z,49.68
2023-04-23T02:40:25.080Z,49.67
2023-04-23T02:40:46.706Z,49.50
2023-04-23T02:41:08.555Z,49.64
2023-04-23T02:41:30.196Z,49.81
2023-04-23T02:41:52.943Z,49.94
2023-04-23T02:42:14.690Z,49.81
2023-04-23T02:42:36.318Z,49.65
2023-04-23T02:42:58.006Z,49.62
2023-04-23T02:43:19.905Z,49.40
2023-04-23T02:43:42.446Z,49.29
2023-04-23T02:44:04.224Z,49.16
2023-04-23T02:44:26.122Z,49.17
2023-04-23T02:44:47.802Z,49.31
2023-04-23T02:45:11.771Z,49.42
2023-04-23T02:45:33.358Z,49.74
2023-04-23T02:45:55.023Z,49.55
2023-04-23T02:46:17.397Z,49.37
2023-04-23T02:46:40.011Z,49.41
2023-04-23T02:47:03.410Z,49.35
2023-04-23T02:47:25.543Z,49.23
2023-04-23T02:47:47.373Z,49.34
2023-04-23T02:48:10.370Z,49.38
2023-04-23T02:48:32.018Z,49.45
2023-04-23T02:48:53.846Z,49.70
2023-04-23T02:49:16.008Z,49.84
2023-04-23T02:49:37.679Z,49.74
2023-04-23T02:50:03.181Z,50.09
2023-04-23T02:50:24.960Z,49.97
2023-04-23T02:50:46.740Z,49.71
2023-04-23T02:51:10.745Z,49.75
2023-04-23T02:51:33.624Z,49.69
2023-04-23T02:51:55.307Z,49.73
2023-04-23T02:52:17.454Z,49.89
2023-04-23T02:52:39.259Z,49.87
2023-04-23T02:53:01.036Z,49.99
2023-04-23T02:53:24.259Z,49.66
2023-04-23T02:53:46.896Z,49.71
2023-04-23T02:54:08.559Z,49.90
2023-04-23T02:54:32.252Z,49.72
2023-04-23T02:54:53.940Z,49.68
2023-04-23T02:55:15.697Z,49.73
2023-04-23T02:55:38.338Z,49.76
2023-04-23T02:56:00.162Z,49.72
2023-04-23T02:56:21.925Z,49.85
2023-04-23T02:56:43.821Z,49.73
2023-04-23T02:57:07.082Z,49.74
2023-04-23T02:57:29.695Z,49.65
2023-04-23T02:57:51.425Z,49.56
2023-04-23T02:58:13.413Z,49.84
2023-04-23T02:58:37.847Z,49.85
2023-04-23T02:58:59.947Z,49.80
2023-04-23T02:59:21.578Z,49.83
2023-04-23T02:59:43.228Z,49.78
2023-04-23T03:00:07.908Z,49.78
2023-04-23T03:00:35.317Z,49.61
2023-04-23T03:00:57.348Z,49.59
2023-04-23T03:01:20.376Z,49.52
2023-04-23T03:01:42.086Z,49.63
2023-04-23T03:02:05.701Z,49.56
2023-04-23T03:02:27.604Z,49.66
2023-04-23T03:02:51.309Z,49.74
2023-04-23T03:03:14.357Z,49.85
2023-04-23T03:03:36.379Z,49.81
2023-04-23T03:04:00.158Z,49.75
2023-04-23T03:04:22.137Z,49.86
2023-04-23T03:04:46.218Z,49.84
2023-04-23T03:05:08.819Z,49.89
2023-04-23T03:05:30.614Z,49.93
2023-04-23T03:05:52.637Z,50.11
2023-04-23T03:06:15.307Z,50.20
2023-04-23T03:06:37.374Z,50.27
2023-04-23T03:06:58.986Z,49.89
2023-04-23T03:07:20.634Z,49.74
2023-04-23T03:07:43.841Z,49.65
2023-04-23T03:08:05.804Z,49.74
2023-04-23T03:08:28.841Z,49.97
2023-04-23T03:08:50.499Z,50.19
2023-04-23T03:09:12.519Z,50.11
2023-04-23T03:09:35.229Z,50.24
2023-04-23T03:09:56.830Z,50.20
2023-04-23T03:10:18.579Z,50.06
2023-04-23T03:10:40.322Z,49.92
2023-04-23T03:11:01.899Z,49.88
2023-04-23T03:11:24.675Z,49.84
2023-04-23T03:11:46.340Z,49.92
2023-04-23T03:12:08.984Z,50.02
2023-04-23T03:12:30.621Z,49.99
2023-04-23T03:12:52.270Z,49.98
2023-04-23T03:13:15.365Z,50.03
2023-04-23T03:13:37.443Z,50.13
2023-04-23T03:13:59.430Z,49.91
2023-04-23T03:14:21.005Z,50.05
2023-04-23T03:14:44.236Z,49.95
2023-04-23T03:15:07.331Z,49.92
2023-04-23T03:15:31.669Z,49.95
2023-04-23T03:15:55.474Z,49.85
2023-04-23T03:16:17.210Z,50.01
2023-04-23T03:16:38.880Z,50.04
2023-04-23T03:17:01.527Z,50.14
2023-04-23T03:17:25.735Z,49.81
2023-04-23T03:17:48.422Z,50.16
2023-04-23T03:18:10.826Z,50.02
2023-04-23T03:18:33.342Z,49.99
2023-04-23T03:18:55.244Z,49.93
2023-04-23T03:19:17.123Z,50.01
2023-04-23T03:19:39.706Z,50.03
2023-04-23T03:20:02.116Z,50.05
2023-04-23T03:20:24.306Z,50.02
2023-04-23T03:20:46.392Z,49.95
2023-04-23T03:21:09.145Z,49.90
2023-04-23T03:21:31.355Z,49.94
2023-04-23T03:21:53.567Z,49.89
2023-04-23T03:22:15.117Z,50.00
2023-04-23T03:22:38.321Z,49.99
2023-04-23T03:23:00.190Z,50.02
2023-04-23T03:23:22.566Z,49.96
2023-04-23T03:23:45.588Z,49.83
2023-04-23T03:24:08.535Z,49.79
2023-04-23T03:24:31.898Z,50.05
2023-04-23T03:24:53.610Z,50.07
2023-04-23T03:25:16.458Z,50.06
2023-04-23T03:25:38.185Z,50.11
2023-04-23T03:26:00.884Z,50.02
2023-04-23T03:26:22.574Z,50.14
2023-04-23T03:26:44.215Z,49.80
2023-04-23T03:27:05.864Z,49.89
2023-04-23T03:27:27.683Z,49.91
2023-04-23T03:27:50.663Z,50.00
2023-04-23T03:28:12.321Z,49.91
2023-04-23T03:28:33.942Z,49.82
2023-04-23T03:28:55.666Z,49.85
2023-04-23T03:29:17.616Z,49.89
2023-04-23T03:29:40.312Z,49.96
2023-04-23T03:30:02.798Z,49.90
2023-04-23T03:30:24.779Z,49.66
2023-04-23T03:30:46.551Z,50.02
2023-04-23T03:31:08.888Z,50.07
2023-04-23T03:31:31.662Z,50.27
2023-04-23T03:31:53.379Z,50.32
2023-04-23T03:32:15.034Z,50.25
2023-04-23T03:32:38.389Z,50.21
2023-04-23T03:33:02.238Z,50.21
2023-04-23T03:33:24.401Z,50.37
2023-04-23T03:33:46.353Z,50.29
2023-04-23T03:34:08.872Z,50.33
2023-04-23T03:34:32.393Z,50.28
2023-04-23T03:34:54.027Z,50.25
2023-04-23T03:35:16.794Z,50.35
2023-04-23T03:35:41.857Z,50.27
2023-04-23T03:36:09.848Z,50.22
2023-04-23T03:36:32.408Z,50.36
2023-04-23T03:36:54.957Z,50.14
2023-04-23T03:37:16.779Z,50.21
2023-04-23T03:37:38.592Z,50.13
2023-04-23T03:38:01.657Z,49.99
2023-04-23T03:38:23.270Z,50.21
2023-04-23T03:38:48.385Z,50.22
2023-04-23T03:39:11.387Z,50.30
2023-04-23T03:39:44.392Z,50.33
2023-04-23T03:40:08.947Z,50.44
2023-04-23T03:40:33.659Z,50.31
2023-04-23T03:40:59.293Z,50.46
2023-04-23T03:41:21.107Z,50.27
2023-04-23T03:41:43.992Z,50.29
2023-04-23T03:42:07.412Z,50.42
2023-04-23T03:42:29.210Z,50.77
2023-04-23T03:42:51.889Z,50.86
2023-04-23T03:43:18.973Z,50.84
2023-04-23T03:44:06.615Z,50.64
2023-04-23T03:44:38.016Z,50.95
2023-04-23T03:45:00.799Z,50.82
2023-04-23T03:45:22.430Z,50.72
2023-04-23T03:45:44.429Z,50.82
2023-04-23T03:46:06.483Z,50.92
2023-04-23T03:46:33.423Z,51.01
2023-04-23T03:46:55.112Z,51.04
2023-04-23T03:47:16.715Z,51.21
2023-04-23T03:47:38.872Z,51.18
2023-04-23T03:48:00.848Z,51.18
2023-04-23T03:48:24.026Z,51.03
2023-04-23T03:48:45.911Z,51.04
2023-04-23T03:49:14.318Z,51.13
2023-04-23T03:49:36.366Z,50.98
2023-04-23T03:49:59.033Z,51.11
2023-04-23T03:50:21.351Z,51.39
2023-04-23T03:50:53.644Z,51.47
2023-04-23T03:51:34.822Z,51.05
2023-04-23T03:51:57.088Z,50.92
2023-04-23T03:52:19.170Z,51.21
2023-04-23T03:52:41.379Z,51.67
2023-04-23T03:53:10.344Z,51.60
2023-04-23T03:54:06.638Z,51.37
2023-04-23T03:54:44.873Z,51.26
2023-04-23T03:55:11.357Z,51.35
2023-04-23T03:55:37.976Z,51.40
2023-04-23T03:55:59.658Z,51.24
2023-04-23T03:56:21.427Z,51.51
2023-04-23T03:56:53.601Z,51.47
2023-04-23T03:57:22.045Z,51.47
2023-04-23T03:57:50.320Z,51.36
2023-04-23T03:58:19.270Z,51.58
2023-04-23T03:58:42.046Z,51.58
2023-04-23T03:59:03.660Z,51.29
2023-04-23T03:59:26.428Z,51.45
2023-04-23T03:59:50.768Z,51.46
2023-04-23T04:00:14.626Z,51.52
2023-04-23T04:00:36.934Z,51.33
2023-04-23T04:00:59.691Z,51.46
2023-04-23T04:01:21.359Z,51.57
2023-04-23T04:01:43.288Z,51.51
2023-04-23T04:02:06.532Z,51.42
2023-04-23T04:02:28.324Z,51.52
2023-04-23T04:02:50.337Z,51.63
2023-04-23T04:03:12.336Z,51.51
2023-04-23T04:03:34.253Z,51.45
2023-04-23T04:03:57.153Z,51.61
2023-04-23T04:04:19.228Z,51.40
2023-04-23T04:04:43.082Z,51.49
2023-04-23T04:05:05.998Z,51.27
2023-04-23T04:05:29.308Z,51.63
2023-04-23T04:05:51.106Z,51.70
2023-04-23T04:06:13.262Z,51.79
2023-04-23T04:06:34.922Z,51.69
2023-04-23T04:06:56.593Z,51.55
2023-04-23T04:07:23.146Z,51.56
2023-04-23T04:07:44.764Z,51.66
2023-04-23T04:08:06.439Z,51.54
2023-04-23T04:08:29.574Z,51.49
2023-04-23T04:08:53.940Z,51.45
2023-04-23T04:09:17.064Z,51.56
2023-04-23T04:09:39.282Z,51.50
2023-04-23T04:10:03.139Z,51.28
2023-04-23T04:10:26.088Z,51.30
2023-04-23T04:10:48.004Z,51.16
2023-04-23T04:11:09.614Z,51.47
2023-04-23T04:11:31.343Z,51.18
2023-04-23T04:11:54.182Z,51.17
2023-04-23T04:12:16.404Z,50.94
2023-04-23T04:12:38.080Z,51.19
2023-04-23T04:12:59.731Z,51.12
2023-04-23T04:13:22.455Z,51.24
2023-04-23T04:13:44.189Z,51.30
2023-04-23T04:14:05.982Z,51.18
2023-04-23T04:14:27.633Z,51.26
2023-04-23T04:14:49.228Z,51.23
2023-04-23T04:15:11.588Z,51.30
2023-04-23T04:15:34.234Z,51.09
2023-04-23T04:15:56.330Z,51.17
2023-04-23T04:16:18.012Z,51.18
2023-04-23T04:16:39.808Z,51.17
2023-04-23T04:17:02.438Z,51.25
2023-04-23T04:17:24.063Z,51.26
2023-04-23T04:17:45.998Z,51.07
2023-04-23T04:18:07.899Z,51.18
2023-04-23T04:18:29.579Z,50.96
2023-04-23T04:18:53.858Z,51.14
2023-04-23T04:19:17.529Z,51.59
2023-04-23T04:19:39.238Z,51.52
2023-04-23T04:20:00.832Z,51.29
2023-04-23T04:20:23.405Z,51.31
2023-04-23T04:20:45.693Z,51.30
2023-04-23T04:21:07.507Z,51.30
2023-04-23T04:21:29.912Z,51.17
2023-04-23T04:21:51.517Z,51.02
2023-04-23T04:22:14.120Z,50.93
2023-04-23T04:22:35.660Z,51.01
2023-04-23T04:22:57.341Z,50.96
2023-04-23T04:23:19.016Z,50.80
2023-04-23T04:23:41.571Z,50.97
2023-04-23T04:24:05.678Z,50.88
2023-04-23T04:24:32.185Z,50.83
2023-04-23T04:24:54.141Z,51.12
2023-04-23T04:25:16.760Z,51.05
2023-04-23T04:25:40.039Z,50.90
2023-04-23T04:26:02.452Z,50.74
2023-04-23T04:26:24.121Z,50.74
2023-04-23T04:26:47.570Z,50.75
2023-04-23T04:27:09.695Z,50.79
2023-04-23T04:27:33.827Z,50.71
2023-04-23T04:27:55.560Z,50.89
2023-04-23T04:28:18.222Z,50.89
2023-04-23T04:28:39.820Z,50.92
2023-04-23T04:29:01.816Z,50.75
2023-04-23T04:29:23.889Z,50.91
2023-04-23T04:29:46.461Z,51.27
2023-04-23T04:30:09.322Z,51.28
2023-04-23T04:30:30.904Z,51.37
2023-04-23T04:30:53.910Z,51.55
2023-04-23T04:31:16.032Z,51.46
2023-04-23T04:31:39.491Z,51.23
2023-04-23T04:32:02.626Z,51.27
2023-04-23T04:32:24.508Z,51.31
2023-04-23T04:32:47.252Z,51.42
2023-04-23T04:33:09.981Z,51.42
2023-04-23T04:33:33.025Z,51.48
2023-04-23T04:33:55.349Z,51.27
2023-04-23T04:34:17.868Z,51.23
2023-04-23T04:34:40.696Z,51.02
2023-04-23T04:35:04.157Z,50.85
2023-04-23T04:35:25.818Z,50.83
2023-04-23T04:35:49.635Z,50.88
2023-04-23T04:36:11.279Z,50.89
2023-04-23T04:36:33.027Z,50.77
2023-04-23T04:36:54.693Z,50.84
2023-04-23T04:37:17.653Z,50.83
2023-04-23T04:37:39.348Z,50.89
2023-04-23T04:38:01.007Z,50.96
2023-04-23T04:38:22.672Z,50.87
2023-04-23T04:38:44.292Z,50.62
2023-04-23T04:39:07.865Z,50.77
2023-04-23T04:39:30.886Z,50.84
2023-04-23T04:39:52.587Z,50.92
2023-04-23T04:40:14.751Z,50.86
2023-04-23T04:40:37.428Z,50.73
2023-04-23T04:41:02.925Z,50.50
2023-04-23T04:41:27.620Z,50.45
2023-04-23T04:41:49.859Z,50.56
2023-04-23T04:42:13.143Z,50.68
2023-04-23T04:42:34.783Z,50.55
2023-04-23T04:42:57.377Z,50.70
2023-04-23T04:43:19.251Z,50.61
2023-04-23T04:43:43.648Z,50.52
2023-04-23T04:44:05.296Z,50.37
2023-04-23T04:44:27.002Z,50.46
2023-04-23T04:44:48.872Z,50.89
2023-04-23T04:45:12.190Z,50.93
2023-04-23T04:45:33.854Z,51.08
2023-04-23T04:45:55.557Z,50.91
2023-04-23T04:46:20.649Z,50.60
2023-04-23T04:46:43.506Z,50.61
2023-04-23T04:47:05.560Z,50.76
2023-04-23T04:47:27.954Z,50.67
2023-04-23T04:47:49.669Z,50.75
2023-04-23T04:48:12.278Z,50.72
2023-04-23T04:48:33.908Z,50.71
2023-04-23T04:48:55.627Z,50.73
2023-04-23T04:49:19.429Z,50.64
2023-04-23T04:49:41.102Z,50.73
2023-04-23T04:50:04.045Z,50.85
2023-04-23T04:50:25.749Z,50.78
2023-04-23T04:50:47.942Z,50.86
2023-04-23T04:51:09.907Z,50.75
2023-04-23T04:51:32.504Z,50.88
2023-04-23T04:51:54.241Z,50.85
2023-04-23T04:52:16.188Z,50.86
2023-04-23T04:52:38.278Z,50.85
2023-04-23T04:53:01.072Z,50.79
2023-04-23T04:53:22.906Z,50.79
2023-04-23T04:53:44.528Z,50.97
2023-04-23T04:54:07.363Z,50.85
2023-04-23T04:54:30.029Z,50.79